Time;durP1;ratioP1;P1;durP2;ratioP2;P2;SDS_P1;SDS_P2;PMS_P1;PMS_P2;Temp;Humidity;BMP_temperature;BMP_pressure;BME280_temperature;BME280_humidity;BME280_pressure;Samples;Min_cycle;Max_cycle;Signal;HPM_P1;HPM_P2
2022/10/10 00:01:44;;;;;;;0.40;0.40;;;21.30;60.30;;;;;;4956503;28;20039;-45
2022/10/10 00:04:09;;;;;;;0.40;0.40;;;21.30;60.40;;;;;;4960341;28;20457;-45
2022/10/10 00:06:35;;;;;;;0.82;0.65;;;21.30;60.50;;;;;;4955297;28;21360;-46
2022/10/10 00:09:01;;;;;;;0.40;0.40;;;21.30;60.30;;;;;;4955501;28;20038;-44
2022/10/10 00:11:26;;;;;;;0.40;0.40;;;21.30;60.30;;;;;;4954993;28;20130;-45
2022/10/10 00:13:52;;;;;;;0.40;0.40;;;21.30;60.40;;;;;;4955770;28;20295;-45
2022/10/10 00:16:17;;;;;;;0.85;0.47;;;21.30;60.40;;;;;;4955860;28;20039;-45
2022/10/10 00:18:43;;;;;;;0.43;0.43;;;21.30;60.30;;;;;;4957753;28;20581;-45
2022/10/10 00:21:09;;;;;;;0.30;0.30;;;21.30;60.40;;;;;;4955731;28;20135;-45
2022/10/10 00:23:35;;;;;;;0.50;0.50;;;21.30;60.40;;;;;;4955054;28;20093;-44
2022/10/10 00:26:00;;;;;;;0.30;0.30;;;21.30;60.40;;;;;;4956851;28;20058;-45
2022/10/10 00:28:26;;;;;;;0.40;0.40;;;21.20;60.40;;;;;;4955201;28;20130;-45
2022/10/10 00:30:51;;;;;;;0.22;0.22;;;21.20;60.30;;;;;;4958679;28;20039;-46
2022/10/10 00:33:17;;;;;;;0.43;0.40;;;21.30;60.40;;;;;;4959990;28;20047;-46
2022/10/10 00:35:42;;;;;;;0.55;0.40;;;21.20;61.20;;;;;;4959492;28;20034;-46
2022/10/10 00:38:08;;;;;;;0.40;0.40;;;21.20;60.30;;;;;;4956182;28;20113;-31
2022/10/10 00:40:34;;;;;;;0.35;0.35;;;21.30;60.30;;;;;;4954757;28;20134;-45
2022/10/10 00:42:59;;;;;;;0.60;0.60;;;21.30;61.00;;;;;;4953085;28;20043;-46
2022/10/10 00:45:31;;;;;;;1.40;0.40;;;21.30;60.20;;;;;;4955137;28;20085;-47
2022/10/10 00:48:12;;;;;;;0.73;0.47;;;21.20;61.10;;;;;;4955992;28;20043;-45
2022/10/10 00:51:00;;;;;;;0.40;0.40;;;21.30;60.40;;;;;;4955933;28;20039;-47
2022/10/10 00:53:47;;;;;;;0.52;0.40;;;21.20;60.40;;;;;;4954144;28;20569;-49
2022/10/10 00:56:14;;;;;;;0.65;0.50;;;21.20;60.40;;;;;;4955581;28;20058;-45
2022/10/10 00:58:43;;;;;;;0.60;0.40;;;21.20;60.50;;;;;;4938994;28;20047;-45
2022/10/10 01:01:09;;;;;;;0.30;0.30;;;21.20;60.60;;;;;;4973088;28;20446;-48
2022/10/10 01:03:34;;;;;;;0.40;0.40;;;21.20;60.60;;;;;;4953126;28;20133;-61
2022/10/10 01:06:00;;;;;;;0.40;0.40;;;21.20;60.70;;;;;;4954049;28;20268;-49
2022/10/10 01:08:25;;;;;;;0.50;0.50;;;21.20;60.80;;;;;;4969999;28;20035;-49
2022/10/10 01:11:18;;;;;;;0.55;0.55;;;21.20;60.70;;;;;;4954461;28;20034;-47
2022/10/10 01:14:00;;;;;;;0.77;0.50;;;21.20;60.60;;;;;;4956699;28;20047;-49
2022/10/10 01:16:49;;;;;;;1.65;0.38;;;21.20;60.70;;;;;;4952492;28;20090;-49
2022/10/10 01:19:32;;;;;;;0.57;0.57;;;21.20;60.70;;;;;;4954427;28;20050;-60
2022/10/10 01:22:25;;;;;;;0.40;0.40;;;21.20;60.80;;;;;;4965551;28;20132;-51
2022/10/10 01:25:16;;;;;;;0.38;0.38;;;21.10;60.80;;;;;;4965659;28;20134;-54
2022/10/10 01:27:55;;;;;;;0.73;0.30;;;21.20;60.80;;;;;;4938177;28;20413;-40
2022/10/10 01:30:22;;;;;;;0.63;0.50;;;21.20;60.80;;;;;;4942615;28;20059;-50
2022/10/10 01:33:10;;;;;;;0.40;0.40;;;21.10;61.00;;;;;;4918930;29;20054;-47
2022/10/10 01:35:56;;;;;;;0.38;0.30;;;21.10;60.80;;;;;;4939611;28;20505;-54
2022/10/10 01:38:34;;;;;;;0.55;0.55;;;21.20;60.80;;;;;;4969310;28;20038;-50
2022/10/10 01:41:07;;;;;;;0.40;0.40;;;21.20;60.70;;;;;;4939917;28;20499;-47
2022/10/10 01:43:34;;;;;;;0.43;0.30;;;21.20;60.80;;;;;;4986821;28;20565;-47
2022/10/10 01:46:08;;;;;;;0.47;0.30;;;21.20;60.80;;;;;;4954184;28;20036;-45
2022/10/10 01:48:34;;;;;;;0.20;0.20;;;21.20;60.90;;;;;;4954653;28;20161;-39
2022/10/10 01:51:14;;;;;;;0.40;0.30;;;21.10;60.80;;;;;;4956567;28;20039;-42
2022/10/10 01:53:58;;;;;;;0.30;0.30;;;21.10;60.90;;;;;;4948613;28;20036;-48
2022/10/10 01:56:38;;;;;;;0.35;0.35;;;21.10;60.80;;;;;;4954420;28;20069;-43
2022/10/10 01:59:23;;;;;;;0.35;0.30;;;21.10;60.80;;;;;;4954183;28;20047;-51
2022/10/10 02:01:53;;;;;;;0.95;0.30;;;21.10;60.80;;;;;;4952691;28;20513;-44
2022/10/10 02:04:31;;;;;;;0.57;0.40;;;21.10;60.80;;;;;;4969763;28;20525;-38
2022/10/10 02:07:24;;;;;;;0.20;0.20;;;21.10;60.80;;;;;;4947390;28;20039;-39
2022/10/10 02:09:50;;;;;;;2.08;0.40;;;21.20;60.80;;;;;;4980493;28;20047;-39
2022/10/10 02:12:15;;;;;;;0.40;0.40;;;21.10;60.80;;;;;;4952954;28;20074;-51
2022/10/10 02:14:43;;;;;;;0.40;0.28;;;21.10;60.80;;;;;;4949140;28;20046;-47
2022/10/10 02:17:10;;;;;;;1.33;0.30;;;21.10;61.60;;;;;;4949781;28;20126;-46
2022/10/10 02:19:37;;;;;;;1.55;0.40;;;21.10;60.70;;;;;;4950253;28;20466;-45
2022/10/10 02:22:02;;;;;;;0.28;0.28;;;21.10;61.10;;;;;;4950514;28;20039;-45
2022/10/10 02:24:28;;;;;;;1.10;0.35;;;21.00;61.30;;;;;;4964364;28;20037;-48
2022/10/10 02:27:07;;;;;;;0.60;0.35;;;21.10;61.10;;;;;;4965773;28;20059;-45
2022/10/10 02:29:34;;;;;;;0.25;0.25;;;21.10;61.00;;;;;;4975881;28;20966;-46
2022/10/10 02:32:06;;;;;;;0.30;0.30;;;21.10;60.80;;;;;;4967739;28;20046;-46
2022/10/10 02:34:37;;;;;;;1.02;0.40;;;21.10;60.90;;;;;;4950798;28;21989;-48
2022/10/10 02:37:06;;;;;;;0.40;0.40;;;21.10;60.80;;;;;;4981726;28;20058;-46
2022/10/10 02:39:34;;;;;;;0.40;0.40;;;21.10;60.80;;;;;;4934086;28;20051;-48
2022/10/10 02:41:59;;;;;;;0.32;0.32;;;21.10;60.80;;;;;;4948260;28;20109;-46
2022/10/10 02:44:25;;;;;;;0.45;0.30;;;21.00;61.00;;;;;;4951780;28;20035;-45
2022/10/10 02:46:50;;;;;;;1.63;0.40;;;21.00;61.20;;;;;;4967669;28;20051;-45
2022/10/10 02:49:26;;;;;;;0.40;0.40;;;21.10;61.00;;;;;;4966200;28;20462;-44
2022/10/10 02:51:51;;;;;;;0.30;0.30;;;21.00;61.70;;;;;;4957329;28;20043;-46
2022/10/10 02:54:17;;;;;;;1.35;0.70;;;21.00;61.00;;;;;;4956549;28;20043;-45
2022/10/10 02:56:42;;;;;;;0.30;0.30;;;21.00;60.80;;;;;;4950834;28;20059;-45
2022/10/10 02:59:08;;;;;;;0.30;0.30;;;21.10;60.80;;;;;;4950745;28;20043;-46
2022/10/10 03:01:33;;;;;;;0.35;0.35;;;21.00;60.80;;;;;;4950499;28;20534;-46
2022/10/10 03:03:59;;;;;;;0.40;0.40;;;21.10;60.80;;;;;;4953992;28;20427;-45
2022/10/10 03:06:25;;;;;;;1.30;0.30;;;21.00;60.90;;;;;;4954082;28;20126;-45
2022/10/10 03:08:50;;;;;;;0.20;0.20;;;20.90;61.20;;;;;;4951545;28;20027;-46
2022/10/10 03:11:16;;;;;;;0.30;0.30;;;20.90;61.40;;;;;;4954253;28;20052;-47
2022/10/10 03:13:41;;;;;;;0.60;0.60;;;21.00;61.20;;;;;;4953902;28;20142;-46
2022/10/10 03:16:07;;;;;;;0.30;0.30;;;20.90;61.20;;;;;;4953266;28;20568;-45
2022/10/10 03:18:32;;;;;;;0.40;0.30;;;20.90;61.20;;;;;;4952722;28;20082;-46
2022/10/10 03:20:58;;;;;;;0.50;0.47;;;21.00;61.20;;;;;;4955929;28;20402;-46
2022/10/10 03:23:24;;;;;;;0.40;0.40;;;21.00;61.10;;;;;;4952129;28;20040;-46
2022/10/10 03:25:49;;;;;;;0.90;0.47;;;21.00;60.80;;;;;;4954357;28;20051;-46
2022/10/10 03:28:15;;;;;;;0.40;0.40;;;21.10;60.80;;;;;;4952902;28;20035;-46
2022/10/10 03:30:41;;;;;;;0.68;0.40;;;21.00;60.80;;;;;;4953486;28;20071;-45
2022/10/10 03:33:06;;;;;;;0.45;0.35;;;20.90;61.00;;;;;;4957465;28;20452;-46
2022/10/10 03:35:32;;;;;;;0.40;0.40;;;20.80;61.30;;;;;;4958444;28;20553;-44
2022/10/10 03:37:58;;;;;;;0.38;0.30;;;21.00;61.30;;;;;;4959526;28;20035;-46
2022/10/10 03:40:23;;;;;;;0.40;0.40;;;20.90;61.10;;;;;;4958461;28;20043;-45
2022/10/10 03:42:49;;;;;;;0.60;0.60;;;20.90;61.10;;;;;;4957332;28;20102;-45
2022/10/10 03:45:15;;;;;;;0.30;0.30;;;20.80;61.30;;;;;;4952797;28;20409;-45
2022/10/10 03:47:40;;;;;;;0.40;0.38;;;20.80;61.30;;;;;;4955247;28;20039;-46
2022/10/10 03:50:06;;;;;;;0.47;0.47;;;20.90;61.40;;;;;;4955003;28;20247;-46
2022/10/10 03:52:32;;;;;;;0.45;0.45;;;20.80;61.30;;;;;;4958270;28;20047;-46
2022/10/10 03:54:57;;;;;;;0.45;0.30;;;20.90;61.40;;;;;;4955563;28;20039;-46
2022/10/10 03:57:23;;;;;;;0.40;0.40;;;20.90;61.20;;;;;;4954283;28;20040;-46
2022/10/10 03:59:48;;;;;;;0.40;0.30;;;20.90;61.20;;;;;;4957492;28;20052;-45
2022/10/10 04:02:14;;;;;;;0.60;0.60;;;21.00;62.10;;;;;;4959351;28;20062;-45
2022/10/10 04:04:40;;;;;;;0.30;0.30;;;20.90;61.20;;;;;;4955902;28;20110;-46
2022/10/10 04:07:05;;;;;;;0.32;0.30;;;20.80;61.30;;;;;;4957334;28;20051;-45
2022/10/10 04:09:31;;;;;;;0.52;0.47;;;20.80;61.20;;;;;;4959007;28;20031;-47
2022/10/10 04:11:56;;;;;;;0.50;0.40;;;20.80;61.60;;;;;;4956673;28;20039;-44
2022/10/10 04:14:22;;;;;;;0.30;0.30;;;20.80;61.30;;;;;;4959965;28;20039;-46
2022/10/10 04:16:47;;;;;;;0.55;0.55;;;20.90;61.40;;;;;;4954362;28;20043;-47
2022/10/10 04:19:13;;;;;;;0.43;0.40;;;20.90;61.10;;;;;;4954100;28;20054;-45
2022/10/10 04:21:39;;;;;;;0.30;0.30;;;20.90;61.10;;;;;;4955004;28;20067;-46
2022/10/10 04:24:05;;;;;;;0.85;0.50;;;20.80;61.20;;;;;;4956351;28;20074;-46
2022/10/10 04:26:30;;;;;;;0.55;0.50;;;20.80;61.40;;;;;;4959057;28;20133;-46
2022/10/10 04:28:56;;;;;;;0.40;0.40;;;20.80;62.00;;;;;;4957066;28;21228;-47
2022/10/10 04:31:22;;;;;;;0.50;0.50;;;20.80;62.10;;;;;;4956916;28;20059;-45
2022/10/10 04:33:48;;;;;;;2.70;0.40;;;20.80;61.60;;;;;;4963561;28;20039;-47
2022/10/10 04:36:13;;;;;;;0.40;0.40;;;20.80;62.30;;;;;;4962172;28;20051;-46
2022/10/10 04:38:39;;;;;;;0.40;0.40;;;20.90;61.50;;;;;;4957746;28;20043;-44
2022/10/10 04:41:04;;;;;;;0.38;0.38;;;20.80;61.40;;;;;;4968916;28;21873;-48
2022/10/10 04:43:30;;;;;;;0.43;0.43;;;20.80;61.40;;;;;;4960676;28;20580;-47
2022/10/10 04:45:57;;;;;;;0.40;0.40;;;20.90;61.20;;;;;;4959996;28;20453;-45
2022/10/10 04:48:22;;;;;;;0.35;0.30;;;20.90;61.20;;;;;;4957789;28;20525;-49
2022/10/10 04:50:56;;;;;;;0.30;0.30;;;20.90;61.10;;;;;;4959292;28;20039;-45
2022/10/10 04:53:21;;;;;;;0.50;0.50;;;20.90;61.00;;;;;;4955041;28;20035;-45
2022/10/10 04:55:47;;;;;;;0.40;0.30;;;20.90;61.20;;;;;;4952270;28;20047;-47
2022/10/10 04:58:13;;;;;;;0.30;0.30;;;20.90;61.10;;;;;;4955013;28;20043;-46
2022/10/10 05:00:38;;;;;;;0.55;0.40;;;20.80;61.50;;;;;;4955250;28;20031;-46
2022/10/10 05:03:04;;;;;;;0.30;0.30;;;20.80;61.40;;;;;;4956701;28;20110;-46
2022/10/10 05:05:30;;;;;;;0.40;0.40;;;20.90;62.10;;;;;;4953025;28;20106;-48
2022/10/10 05:07:55;;;;;;;0.50;0.50;;;20.90;61.10;;;;;;4959698;28;20474;-47
2022/10/10 05:10:21;;;;;;;0.70;0.50;;;21.00;61.00;;;;;;4961448;28;20039;-47
2022/10/10 05:12:47;;;;;;;1.00;0.52;;;21.00;61.10;;;;;;4950384;28;20056;-48
2022/10/10 05:15:13;;;;;;;0.50;0.47;;;20.90;60.80;;;;;;4954446;28;20041;-47
2022/10/10 05:17:39;;;;;;;0.45;0.40;;;20.80;61.30;;;;;;4951592;28;20043;-46
2022/10/10 05:20:05;;;;;;;0.60;0.52;;;20.90;61.20;;;;;;4953945;28;20102;-46
2022/10/10 05:22:30;;;;;;;0.60;0.50;;;20.90;61.30;;;;;;4950914;28;20053;-46
2022/10/10 05:24:58;;;;;;;0.55;0.50;;;20.90;61.10;;;;;;4956641;28;20046;-45
2022/10/10 05:27:23;;;;;;;0.50;0.50;;;20.90;61.30;;;;;;4953224;28;20187;-47
2022/10/10 05:29:49;;;;;;;0.80;0.80;;;20.90;61.20;;;;;;4957183;28;20035;-44
2022/10/10 05:32:15;;;;;;;0.47;0.40;;;20.90;61.10;;;;;;4946107;28;21208;-46
2022/10/10 05:34:40;;;;;;;1.38;0.65;;;20.90;61.10;;;;;;4599045;28;10000011;-48
2022/10/10 05:37:06;;;;;;;0.93;0.40;;;20.90;61.10;;;;;;4950071;28;20072;-48
2022/10/10 05:39:31;;;;;;;0.60;0.60;;;20.90;61.30;;;;;;4945864;28;20522;-46
2022/10/10 05:41:57;;;;;;;0.57;0.57;;;20.90;61.60;;;;;;4949172;28;20127;-45
2022/10/10 05:44:22;;;;;;;0.52;0.52;;;20.90;61.40;;;;;;4948809;28;20066;-48
2022/10/10 05:46:48;;;;;;;1.02;0.68;;;20.90;61.60;;;;;;4947320;28;20077;-47
2022/10/10 05:49:14;;;;;;;0.55;0.55;;;20.90;61.50;;;;;;4956930;28;20464;-49
2022/10/10 05:51:39;;;;;;;0.77;0.68;;;20.90;61.70;;;;;;4949956;28;20130;-47
2022/10/10 05:54:05;;;;;;;0.45;0.45;;;20.90;61.50;;;;;;4951614;28;20506;-46
2022/10/10 05:56:30;;;;;;;4.82;0.77;;;20.90;61.50;;;;;;4949736;28;20178;-43
2022/10/10 05:58:56;;;;;;;1.20;0.60;;;20.80;61.40;;;;;;4951647;28;20154;-49
2022/10/10 06:01:21;;;;;;;0.50;0.47;;;20.80;61.90;;;;;;4951270;28;20057;-46
2022/10/10 06:03:51;;;;;;;0.73;0.50;;;20.80;61.70;;;;;;4956293;28;20054;-46
2022/10/10 06:06:17;;;;;;;0.88;0.50;;;20.90;61.40;;;;;;4949281;28;20137;-46
2022/10/10 06:08:43;;;;;;;0.47;0.47;;;20.80;61.40;;;;;;4948093;28;20062;-46
2022/10/10 06:11:09;;;;;;;0.43;0.40;;;20.80;61.60;;;;;;4949656;28;20134;-47
2022/10/10 06:13:36;;;;;;;0.52;0.45;;;20.80;61.60;;;;;;4953619;28;20075;-45
2022/10/10 06:16:02;;;;;;;0.68;0.60;;;20.70;61.60;;;;;;4947606;28;20142;-46
2022/10/10 06:18:27;;;;;;;0.70;0.70;;;20.80;61.70;;;;;;4943926;28;20043;-46
2022/10/10 06:20:53;;;;;;;1.08;0.75;;;20.80;61.70;;;;;;4950160;28;20058;-47
2022/10/10 06:23:19;;;;;;;1.95;0.50;;;20.80;61.90;;;;;;4950972;28;20057;-48
2022/10/10 06:25:45;;;;;;;0.63;0.40;;;20.80;62.00;;;;;;4955044;28;20510;-47
2022/10/10 06:28:11;;;;;;;0.65;0.52;;;20.70;61.90;;;;;;4946154;28;20058;-47
2022/10/10 06:30:41;;;;;;;0.60;0.40;;;20.80;62.00;;;;;;4949949;28;20167;-47
2022/10/10 06:33:07;;;;;;;0.40;0.40;;;20.70;62.30;;;;;;4950538;28;20047;-47
2022/10/10 06:35:33;;;;;;;0.85;0.60;;;20.70;62.40;;;;;;4953531;28;20563;-46
2022/10/10 06:37:58;;;;;;;0.52;0.40;;;20.60;62.40;;;;;;4950479;28;20066;-60
2022/10/10 06:40:24;;;;;;;0.60;0.60;;;20.70;62.50;;;;;;4950589;28;20880;-55
2022/10/10 06:42:49;;;;;;;0.60;0.40;;;20.70;62.50;;;;;;4949973;28;20059;-46
2022/10/10 06:45:15;;;;;;;0.57;0.47;;;20.60;62.50;;;;;;4948827;28;20043;-53
2022/10/10 06:47:41;;;;;;;0.68;0.50;;;20.60;62.50;;;;;;4950080;28;20055;-44
2022/10/10 06:50:07;;;;;;;0.57;0.57;;;20.60;63.00;;;;;;4949647;28;20498;-44
2022/10/10 06:52:32;;;;;;;0.60;0.57;;;20.60;62.60;;;;;;4978691;28;20062;-43
2022/10/10 06:54:58;;;;;;;0.50;0.50;;;20.60;62.80;;;;;;4955100;28;20556;-41
2022/10/10 06:57:23;;;;;;;0.50;0.50;;;20.60;62.60;;;;;;4955551;28;20081;-47
2022/10/10 06:59:49;;;;;;;0.60;0.60;;;20.70;62.40;;;;;;4953128;28;20062;-42
2022/10/10 07:02:14;;;;;;;1.67;0.55;;;20.70;62.30;;;;;;4953017;28;20047;-43
2022/10/10 07:04:40;;;;;;;1.17;0.70;;;20.70;62.40;;;;;;4952622;28;20062;-42
2022/10/10 07:07:05;;;;;;;1.65;0.63;;;20.70;62.30;;;;;;4959469;28;20058;-59
2022/10/10 07:09:31;;;;;;;1.00;0.80;;;20.80;62.60;;;;;;4950996;28;20058;-42
2022/10/10 07:11:57;;;;;;;0.85;0.73;;;20.80;62.70;;;;;;4958065;28;20394;-44
2022/10/10 07:14:23;;;;;;;0.60;0.60;;;20.80;62.60;;;;;;4957253;28;20126;-43
2022/10/10 07:16:48;;;;;;;1.60;1.10;;;20.80;62.50;;;;;;4956138;28;20690;-51
2022/10/10 07:19:14;;;;;;;1.02;0.93;;;20.80;62.50;;;;;;4956417;28;20043;-48
2022/10/10 07:21:40;;;;;;;2.25;0.90;;;20.90;62.40;;;;;;4957869;28;20042;-44
2022/10/10 07:24:05;;;;;;;0.63;0.60;;;20.90;62.30;;;;;;4957402;28;20502;-41
2022/10/10 07:26:35;;;;;;;2.20;0.50;;;20.90;62.30;;;;;;4956439;28;20449;-24
2022/10/10 07:29:01;;;;;;;1.55;0.77;;;20.90;62.40;;;;;;4959851;28;20138;-45
2022/10/10 07:31:27;;;;;;;1.10;0.68;;;20.90;62.30;;;;;;4955952;28;20134;-58
2022/10/10 07:33:52;;;;;;;0.90;0.90;;;20.90;62.10;;;;;;4957100;28;20409;-42
2022/10/10 07:36:18;;;;;;;3.50;1.42;;;20.90;62.10;;;;;;4957509;28;20122;-47
2022/10/10 07:38:44;;;;;;;1.23;0.70;;;20.90;62.00;;;;;;4958326;28;20039;-42
2022/10/10 07:41:11;;;;;;;1.20;0.70;;;20.90;62.70;;;;;;4959753;28;20031;-41
2022/10/10 07:43:37;;;;;;;0.85;0.68;;;20.90;62.20;;;;;;4958155;28;20071;-55
2022/10/10 07:46:04;;;;;;;0.85;0.85;;;20.90;62.10;;;;;;4957697;28;20141;-45
2022/10/10 07:48:30;;;;;;;0.88;0.70;;;20.90;62.00;;;;;;4962129;28;20526;-45
2022/10/10 07:50:55;;;;;;;0.90;0.70;;;20.90;62.10;;;;;;4958400;28;20050;-43
2022/10/10 07:53:21;;;;;;;0.93;0.90;;;20.90;62.10;;;;;;4954598;28;20406;-40
2022/10/10 07:55:46;;;;;;;1.08;0.98;;;20.90;62.30;;;;;;4955929;28;20135;-49
2022/10/10 07:58:12;;;;;;;0.98;0.75;;;20.90;62.10;;;;;;4959020;28;21334;-53
2022/10/10 08:00:41;;;;;;;1.10;0.95;;;21.00;62.10;;;;;;4956642;28;20134;-44
2022/10/10 08:03:07;;;;;;;1.30;1.20;;;20.90;61.80;;;;;;4957775;28;20078;-43
2022/10/10 08:05:33;;;;;;;1.10;0.90;;;20.90;62.80;;;;;;4958794;28;20106;-53
2022/10/10 08:07:58;;;;;;;0.75;0.75;;;20.90;62.30;;;;;;4955751;28;20581;-49
2022/10/10 08:10:24;;;;;;;1.00;0.90;;;20.80;62.20;;;;;;4957238;28;20043;-47
2022/10/10 08:12:49;;;;;;;0.90;0.90;;;20.90;62.10;;;;;;4958804;28;20057;-43
2022/10/10 08:15:15;;;;;;;1.58;1.15;;;20.80;62.10;;;;;;4955168;28;20047;-41
2022/10/10 08:17:41;;;;;;;1.75;0.90;;;20.90;62.20;;;;;;4954595;28;20071;-43
2022/10/10 08:20:06;;;;;;;1.23;0.80;;;20.90;61.90;;;;;;4968964;28;20050;-54
2022/10/10 08:22:32;;;;;;;1.05;0.95;;;20.90;61.90;;;;;;4957612;28;20039;-40
2022/10/10 08:24:57;;;;;;;0.90;0.90;;;20.90;62.10;;;;;;4955888;28;20453;-46
2022/10/10 08:27:23;;;;;;;0.80;0.80;;;20.90;61.90;;;;;;4957158;28;20035;-46
2022/10/10 08:29:48;;;;;;;1.00;1.00;;;20.90;61.90;;;;;;4955213;28;20054;-40
2022/10/10 08:32:14;;;;;;;0.90;0.90;;;20.90;61.90;;;;;;4957332;28;20113;-47
2022/10/10 08:34:39;;;;;;;1.13;1.13;;;20.90;62.10;;;;;;4958302;28;20059;-44
2022/10/10 08:37:05;;;;;;;1.10;0.80;;;20.90;62.10;;;;;;4954956;28;20047;-49
2022/10/10 08:39:31;;;;;;;0.70;0.70;;;20.90;62.00;;;;;;4957638;28;20135;-46
2022/10/10 08:42:00;;;;;;;1.10;1.00;;;20.80;61.90;;;;;;4954480;28;20502;-40
2022/10/10 08:44:42;;;;;;;1.00;0.93;;;20.80;62.00;;;;;;4957761;28;20054;-42
2022/10/10 08:47:19;;;;;;;1.10;1.10;;;20.80;62.80;;;;;;4944660;28;20632;-43
2022/10/10 08:50:01;;;;;;;0.80;0.80;;;20.80;61.90;;;;;;4954500;28;20179;-56
2022/10/10 08:52:47;;;;;;;1.13;1.02;;;20.90;61.90;;;;;;4955111;28;20070;-53
2022/10/10 08:55:37;;;;;;;0.75;0.65;;;20.80;61.90;;;;;;4961023;28;20055;-45
2022/10/10 08:58:29;;;;;;;1.35;0.88;;;20.80;62.10;;;;;;4954052;28;20051;-46
2022/10/10 09:01:18;;;;;;;1.00;1.00;;;20.80;62.00;;;;;;4951831;28;20046;-44
2022/10/10 09:03:50;;;;;;;0.90;0.90;;;20.80;62.00;;;;;;4957217;28;20040;-47
2022/10/10 09:06:23;;;;;;;2.00;0.98;;;20.80;62.00;;;;;;4954891;28;20047;-60
2022/10/10 09:09:00;;;;;;;1.13;1.02;;;20.80;61.90;;;;;;4957236;28;20042;-51
2022/10/10 09:11:54;;;;;;;0.80;0.80;;;20.80;62.00;;;;;;4955200;28;20118;-58
2022/10/10 09:14:22;;;;;;;0.90;0.90;;;20.80;61.90;;;;;;4952193;28;20046;-44
2022/10/10 09:16:57;;;;;;;0.88;0.88;;;20.90;62.10;;;;;;4954546;28;20043;-53
2022/10/10 09:19:31;;;;;;;1.00;0.90;;;20.80;62.10;;;;;;4955652;28;20197;-52
2022/10/10 09:21:59;;;;;;;1.02;0.95;;;20.80;62.00;;;;;;4956955;28;20058;-42
2022/10/10 09:24:34;;;;;;;1.15;1.05;;;20.90;62.20;;;;;;4971738;28;20042;-44
2022/10/10 09:27:04;;;;;;;0.70;0.70;;;20.80;62.00;;;;;;4936820;28;20138;-48
2022/10/10 09:29:37;;;;;;;1.45;1.20;;;20.90;62.10;;;;;;4955095;28;20040;-56
2022/10/10 09:32:20;;;;;;;1.13;1.13;;;20.90;62.10;;;;;;4938835;28;20457;-40
2022/10/10 09:35:21;;;;;;;1.00;0.82;;;20.90;62.20;;;;;;4953872;28;20057;-41
2022/10/10 09:37:48;;;;;;;0.77;0.77;;;20.90;62.10;;;;;;4952221;28;20050;-41
2022/10/10 09:40:27;;;;;;;1.00;1.00;;;20.90;62.10;;;;;;4953579;28;20079;-56
2022/10/10 09:42:53;;;;;;;0.95;0.95;;;20.90;62.10;;;;;;4951336;28;20050;-47
2022/10/10 09:45:25;;;;;;;1.00;1.00;;;20.80;62.20;;;;;;4935713;28;20039;-45
2022/10/10 09:47:53;;;;;;;2.03;0.93;;;20.80;62.70;;;;;;4972031;28;20044;-50
2022/10/10 09:50:18;;;;;;;1.30;1.20;;;20.70;62.90;;;;;;4958111;28;20043;-43
2022/10/10 09:52:44;;;;;;;2.55;1.08;;;20.80;62.70;;;;;;4954984;28;20035;-40
2022/10/10 09:55:27;;;;;;;1.10;1.00;;;20.80;62.40;;;;;;4967993;28;20055;-50
2022/10/10 09:57:54;;;;;;;1.17;1.08;;;20.90;62.00;;;;;;4938053;28;20046;-44
2022/10/10 10:00:19;;;;;;;1.20;1.10;;;20.90;62.60;;;;;;4944960;28;20356;-44
2022/10/10 10:02:49;;;;;;;0.98;0.90;;;20.80;62.50;;;;;;4950895;28;20039;-47
2022/10/10 10:05:33;;;;;;;1.05;1.00;;;20.80;62.70;;;;;;4950959;28;20050;-48
2022/10/10 10:07:58;;;;;;;0.82;0.77;;;20.80;62.70;;;;;;4953290;28;20074;-47
2022/10/10 10:10:25;;;;;;;0.77;0.77;;;20.80;62.80;;;;;;4934395;28;20655;-46
2022/10/10 10:12:51;;;;;;;1.77;1.00;;;20.80;62.80;;;;;;4948542;28;20038;-46
2022/10/10 10:15:25;;;;;;;1.33;0.88;;;20.80;62.70;;;;;;4953232;28;20074;-46
2022/10/10 10:18:15;;;;;;;0.90;0.90;;;20.80;62.90;;;;;;4953346;28;20039;-46
2022/10/10 10:20:42;;;;;;;0.90;0.90;;;20.80;62.80;;;;;;4955155;28;20054;-46
2022/10/10 10:23:40;;;;;;;0.88;0.88;;;20.80;62.60;;;;;;4957531;28;20054;-46
2022/10/10 10:26:28;;;;;;;0.70;0.70;;;20.80;62.50;;;;;;4914664;29;20060;-46
2022/10/10 10:28:54;;;;;;;0.80;0.80;;;20.80;62.50;;;;;;4901498;29;20052;-46
2022/10/10 10:31:38;;;;;;;0.90;0.80;;;20.80;62.60;;;;;;4899982;29;20099;-48
2022/10/10 10:34:06;;;;;;;1.17;1.08;;;20.80;62.60;;;;;;4914597;29;20095;-46
2022/10/10 10:36:45;;;;;;;1.17;0.82;;;20.80;62.70;;;;;;4896012;29;20050;-47
2022/10/10 10:39:35;;;;;;;1.13;0.90;;;20.90;62.00;;;;;;4900632;29;20131;-45
2022/10/10 10:42:04;;;;;;;1.13;1.08;;;20.90;62.40;;;;;;4916210;29;20047;-46
2022/10/10 10:44:44;;;;;;;1.17;1.02;;;20.90;62.90;;;;;;4923202;29;20114;-46
2022/10/10 10:47:31;;;;;;;0.90;0.90;;;20.80;63.30;;;;;;4922519;29;20052;-48
2022/10/10 10:50:17;;;;;;;1.10;1.10;;;20.80;63.60;;;;;;4922928;29;20523;-47
2022/10/10 10:52:59;;;;;;;1.15;1.05;;;20.80;63.60;;;;;;4909245;29;20051;-46
2022/10/10 10:55:29;;;;;;;1.38;1.23;;;20.80;63.60;;;;;;4921311;29;20544;-46
2022/10/10 10:58:16;;;;;;;1.05;1.05;;;20.80;63.90;;;;;;4901281;29;20067;-46
2022/10/10 11:00:47;;;;;;;1.52;1.20;;;20.80;65.10;;;;;;4906660;29;20119;-49
2022/10/10 11:03:50;;;;;;;2.47;1.10;;;20.80;64.70;;;;;;4928710;28;20043;-47
2022/10/10 11:06:26;;;;;;;1.38;1.27;;;20.80;64.10;;;;;;4610336;28;10000566;-47
2022/10/10 11:09:15;;;;;;;1.58;1.30;;;20.80;64.40;;;;;;4952187;28;20059;-47
2022/10/10 11:11:49;;;;;;;1.60;1.50;;;20.80;64.70;;;;;;4957376;28;20129;-46
2022/10/10 11:14:53;;;;;;;1.55;1.10;;;20.80;65.50;;;;;;4960063;28;20058;-48
2022/10/10 11:17:41;;;;;;;1.50;1.25;;;20.80;65.40;;;;;;4952221;28;20057;-47
2022/10/10 11:20:28;;;;;;;2.75;1.13;;;20.90;67.00;;;;;;4947048;28;20058;-47
2022/10/10 11:23:07;;;;;;;2.53;1.83;;;20.90;67.60;;;;;;4947611;28;20039;-46
2022/10/10 11:25:39;;;;;;;2.63;1.50;;;20.90;67.50;;;;;;4963490;28;20428;-48
2022/10/10 11:28:12;;;;;;;3.03;1.40;;;20.90;67.20;;;;;;4945607;28;20518;-46
2022/10/10 11:30:48;;;;;;;2.42;1.60;;;20.90;67.60;;;;;;4966450;28;20165;-46
2022/10/10 11:33:17;;;;;;;2.25;1.85;;;20.90;68.90;;;;;;4947459;28;20051;-48
2022/10/10 11:36:19;;;;;;;2.30;1.60;;;20.90;69.60;;;;;;4962112;28;20054;-48
2022/10/10 11:38:58;;;;;;;1.77;1.63;;;20.90;68.80;;;;;;4947768;28;20042;-49
2022/10/10 11:41:57;;;;;;;2.40;1.35;;;21.00;67.20;;;;;;4969591;28;20070;-47
2022/10/10 11:44:33;;;;;;;2.22;1.73;;;20.90;66.20;;;;;;4959228;28;20093;-46
2022/10/10 11:47:12;;;;;;;1.50;1.40;;;20.90;67.80;;;;;;4977905;28;20047;-46
2022/10/10 11:50:20;;;;;;;2.65;1.30;;;20.90;66.20;;;;;;4959040;28;20043;-46
2022/10/10 11:53:02;;;;;;;1.35;1.05;;;20.90;66.20;;;;;;4959636;28;20050;-46
2022/10/10 11:55:39;;;;;;;2.28;1.23;;;20.90;67.30;;;;;;4956795;28;20276;-48
2022/10/10 11:58:04;;;;;;;2.67;1.70;;;20.80;66.10;;;;;;4957740;28;20406;-46
2022/10/10 12:00:34;;;;;;;2.35;1.63;;;20.90;66.50;;;;;;4960392;28;20039;-47
2022/10/10 12:03:00;;;;;;;2.05;1.40;;;20.90;66.70;;;;;;4956437;28;20046;-47
2022/10/10 12:05:27;;;;;;;2.10;1.65;;;20.90;67.60;;;;;;4944860;28;20073;-47
2022/10/10 12:07:55;;;;;;;1.40;1.30;;;20.90;67.20;;;;;;4982719;28;20040;-49
2022/10/10 12:10:26;;;;;;;1.88;1.42;;;21.00;67.20;;;;;;4954994;28;20051;-47
2022/10/10 12:12:53;;;;;;;2.67;2.20;;;21.00;66.50;;;;;;4970241;28;20043;-50
2022/10/10 12:15:34;;;;;;;1.40;1.30;;;21.00;66.40;;;;;;4971301;28;20175;-48
2022/10/10 12:18:00;;;;;;;2.20;1.40;;;21.00;65.90;;;;;;4952951;28;20049;-46
2022/10/10 12:20:25;;;;;;;1.55;1.45;;;21.00;67.70;;;;;;4956639;28;20051;-48
2022/10/10 12:23:09;;;;;;;1.50;1.40;;;21.00;66.30;;;;;;4955161;28;20050;-47
2022/10/10 12:25:39;;;;;;;1.55;1.45;;;21.10;66.90;;;;;;4954279;28;20049;-46
2022/10/10 12:28:14;;;;;;;2.28;1.45;;;21.10;66.60;;;;;;4955011;28;20042;-46
2022/10/10 12:30:54;;;;;;;1.40;1.30;;;21.00;67.40;;;;;;4955425;28;20043;-45
2022/10/10 12:33:42;;;;;;;1.83;1.30;;;21.00;67.40;;;;;;4948851;28;20047;-46
2022/10/10 12:36:20;;;;;;;1.50;1.40;;;21.00;67.10;;;;;;4958268;28;20043;-44
2022/10/10 12:39:18;;;;;;;2.13;1.20;;;21.00;67.10;;;;;;4955646;28;20134;-45
2022/10/10 12:41:49;;;;;;;1.20;1.10;;;21.00;67.50;;;;;;4930885;28;20051;-46
2022/10/10 12:44:23;;;;;;;3.35;1.35;;;21.00;67.00;;;;;;4939923;29;20051;-47
2022/10/10 12:47:45;;;;;;;3.03;1.70;;;21.00;66.40;;;;;;4941788;29;20054;-46
2022/10/10 12:50:50;;;;;;;1.50;1.30;;;21.00;66.50;;;;;;4900461;29;20076;-46
2022/10/10 12:53:16;;;;;;;1.40;1.30;;;21.10;65.40;;;;;;4906252;29;20558;-48
2022/10/10 12:55:43;;;;;;;1.77;1.20;;;21.10;65.60;;;;;;4905467;29;20058;-46
2022/10/10 12:58:21;;;;;;;1.55;1.42;;;21.10;65.70;;;;;;4905280;29;20055;-45
2022/10/10 13:00:46;;;;;;;1.85;1.35;;;21.10;65.00;;;;;;4905876;29;20041;-46
2022/10/10 13:03:18;;;;;;;3.10;1.55;;;21.10;64.90;;;;;;4903973;29;20565;-48
2022/10/10 13:05:44;;;;;;;1.60;1.20;;;21.10;65.60;;;;;;4898303;29;20135;-46